AirNav   Everest Fuels
 
 446 users online  

9VA5 Bluegrass Heliport
Bluemont, Virginia, USA

GOING TO BLUEMONT?


FAA INFORMATION EFFECTIVE 10 SEPTEMBER 2020

Location

FAA Identifier: 9VA5
Lat/Long: 39-03-47.9160N 077-53-24.1210W
39-03.798600N 077-53.402017W
39.0633100,-77.8900336
(estimated)
Elevation: 1707.4 ft. / 520 m (estimated)
Variation: 10W (2010)
From city: 3 miles E of BLUEMONT, VA
Time zone: UTC -4 (UTC -5 during Standard Time)
Zip code: 20135

Heliport Operations

Heliport use: Private use. Permission required prior to landing
Activation date: 09/2004
Control tower: no
ARTCC: WASHINGTON CENTER
FSS: LEESBURG FLIGHT SERVICE STATION
NOTAMs facility: FDC (NOTAM-D service not available)
Attendance: UNATNDD
Wind indicator: lighted
Segmented circle: no
Lights: FOR PERIMETER LGTS CALL 540-542-2013.

Heliport Communications

WX AWOS-3 at OKV (13 nm W): 124.85 (540-662-6970)
WX AWOS-3 at JYO (16 nm E): 125.225 (703-777-3781)
WX AWOS-3 at FRR (19 nm SW): 121.85 (540-635-5377)

Nearby radio navigation aids

VOR radial/distance  VOR name  Freq  Var
LDNr056/19.3LINDEN VORTAC114.3006W
MRBr193/19.4MARTINSBURG VORTAC112.1007W
AMLr299/21.2ARMEL VOR/DME113.5008W
CSNr003/25.4CASANOVA VORTAC116.3006W
FDKr237/(31.8)FREDERICK VOR109.0008W
HGRr189/(38.1)HAGERSTOWN VOR109.8007W

 
NDB name  Hdg/Dist  Freq  Var  ID
CAVERNS060/34.924509WLUA .-.. ..- .-
NAILR011/36.535110WMSQ -- ... --.-
GEORGETOWN292/36.632309WGTN --. - -.

Heliport Services

Runway Information

Helipad H1

Dimensions: 50 x 50 ft. / 15 x 15 m
Surface: concrete
Runway edge lights: PERI
Latitude: 39-03.798600N
Longitude: 077-53.402017W
Elevation: 1707.4 ft.
Traffic pattern: leftleft

Heliport Ownership and Management from official FAA records

Ownership: Publicly-owned
Owner: FEMA
19844 BLUE RIDGE MOUNTAIN RD
BLUEMONT, VA 20135
Phone 540-542-2013
Manager: PAUL THIBODEAU
19844 BLUE RIDGE MOUNTAIN RD
BLUEMONT, VA 20135
Phone (540) 542-5786

Additional Remarks

50 FT TREES 200 FT W AND 50 FT BLDG 360 FT E OF HELIPAD.
FOR CD CTC POTOMAC APCH AT 866-709-4993.
REMARKS: NORMAL OPR HRS 1245-2130Z++ M-F. AUTH MIL ACFT ONLY, PPR REQUIRED, 540-542-3014
COMMUNICATIONS: ADVISORY 126.2 241.0; POTOMAC APPROACH 120.45 306.925

Instrument Procedures

NOTE: All procedures below are presented as PDF files. If you need a reader for these files, you should download the free Adobe Reader.

NOT FOR NAVIGATION. Please procure official charts for flight.
FAA instrument procedures published for use from 10 September 2020 at 0901Z to 08 October 2020 at 0900z.

 
IAPs - Instrument Approach Procedures
COPTER RNAV (GPS) 040   download (121KB)
COPTER VOR/DME OR TACAN 056   download (132KB)

Other nearby airports with instrument procedures:

2VG2 - Upperville Airport (6 nm S)
KOKV - Winchester Regional Airport (13 nm W)
KJYO - Leesburg Executive Airport (16 nm E)
KFRR - Front Royal-Warren County Airport (19 nm SW)
KMRB - Eastern WV Regional Airport/Shepherd Field (21 nm N)
 
Loc | Ops | Rwys | IFR | FBO | Links
Com | Nav | Svcs | Stats | Notes
Area around 9VA5 (Bluegrass Heliport)
 
Road maps at: MapQuest Bing Google
 
Aerial photo
No photo
 
Sectional chart

 
Airport distance calculator
Flying to Bluegrass Heliport? Find the distance to fly.

From to 9VA5

Sunrise and sunset
Times for 30-Sep-2020
 Local
(UTC-4)
 Zulu
(UTC)
Morning civil twilight06:4210:42
Sunrise07:0811:08
Sunset18:5422:54
Evening civil twilight19:2123:21

Current date and time
Zulu (UTC)  30-Sep-2020 06:31:50
Local (UTC-4)  30-Sep-2020 02:31:50
 
METAR
KOKV 
13nm W 
300615Z AUTO 00000KT 10SM RA OVC021 11/10 A2970 RMK AO2
KJYO 
15nm E 
300615Z AUTO 29011G19KT 7SM SCT007 OVC012 10/10 A2970 RMK AO2
KFRR 
19nm SW 
300615Z AUTO 00000KT 10SM OVC020 11/11 A2970 RMK AO1
KMRB 
21nm N 
300553Z AUTO 27010KT 10SM -RA SCT010 OVC015 12/11 A2968 RMK AO2 PRESRR SLP050 P0004 60050 T01220111 10122 20117 55022
KIAD 
22nm E 
300552Z 30009KT 10SM -RA BKN007 OVC110 13/12 A2963 RMK AO2 PRESRR SLP033 P0004 60040 T01280117 10144 20128 55033 $
TAF
KMRB 
21nm N 
300542Z 3006/0106 27010KT P6SM -RA BKN008 OVC090 FM300800 25004KT P6SM SCT250 FM301400 25010G18KT P6SM FEW250 FM302100 22006KT P6SM FEW250
KIAD 
22nm E 
300542Z 3006/0112 01009KT P6SM -RA SCT008 BKN050 FM301000 25004KT P6SM SCT250 FM301600 26010G18KT P6SM FEW250 FM302100 21006KT P6SM FEW250
NOTAMs
Click for the latest NOTAMs
NOTAMs are issued by the DoD/FAA and will open in a separate window not controlled by AirNav.

 

 
 

Would you like to see your business listed on this page?

 If your business provides an interesting product or service to pilots, flight crews, aircraft, or users of the Bluegrass Heliport, you should consider listing it here.  To start the listing process, click on the button below
 
Add a business
 

Other Pages about Bluegrass Heliport

Update a link
 
Copyright © AirNav, LLC. All rights reserved. Privacy Policy  Contact